sensor_id;sensor_type;location;lat;lon;timestamp;temperature;humidity
1383;DHT22;685;47.196;11.880;2023-02-01T00:01:47;1.00;99.90
1383;DHT22;685;47.196;11.880;2023-02-01T00:04:14;0.70;99.90
1383;DHT22;685;47.196;11.880;2023-02-01T00:06:42;0.70;99.90
1383;DHT22;685;47.196;11.880;2023-02-01T00:09:08;0.90;99.90
1383;DHT22;685;47.196;11.880;2023-02-01T00:11:35;1.00;99.90
1383;DHT22;685;47.196;11.880;2023-02-01T00:14:02;1.10;99.90
1383;DHT22;685;47.196;11.880;2023-02-01T00:16:30;1.20;99.90
1383;DHT22;685;47.196;11.880;2023-02-01T00:19:01;1.20;99.90
1383;DHT22;685;47.196;11.880;2023-02-01T00:21:28;1.00;99.90
1383;DHT22;685;47.196;11.880;2023-02-01T00:23:56;0.90;99.90
1383;DHT22;685;47.196;11.880;2023-02-01T00:26:27;0.80;99.90
1383;DHT22;685;47.196;11.880;2023-02-01T00:28:56;0.80;99.90
1383;DHT22;685;47.196;11.880;2023-02-01T00:31:23;1.00;99.90
1383;DHT22;685;47.196;11.880;2023-02-01T00:33:50;1.10;99.90
1383;DHT22;685;47.196;11.880;2023-02-01T00:36:19;1.10;99.90
1383;DHT22;685;47.196;11.880;2023-02-01T00:38:46;1.00;99.90
1383;DHT22;685;47.196;11.880;2023-02-01T00:41:14;0.40;99.90
1383;DHT22;685;47.196;11.880;2023-02-01T00:43:41;0.30;99.90
1383;DHT22;685;47.196;11.880;2023-02-01T00:46:09;0.40;99.90
1383;DHT22;685;47.196;11.880;2023-02-01T00:48:36;0.60;99.90
1383;DHT22;685;47.196;11.880;2023-02-01T00:51:05;0.70;99.90
1383;DHT22;685;47.196;11.880;2023-02-01T00:53:34;0.80;99.90
1383;DHT22;685;47.196;11.880;2023-02-01T00:56:02;0.80;99.90
1383;DHT22;685;47.196;11.880;2023-02-01T00:58:29;0.70;99.90
1383;DHT22;685;47.196;11.880;2023-02-01T01:01:04;0.50;99.90
1383;DHT22;685;47.196;11.880;2023-02-01T01:03:32;0.10;99.90
1383;DHT22;685;47.196;11.880;2023-02-01T01:06:01;0.10;99.90
1383;DHT22;685;47.196;11.880;2023-02-01T01:08:29;0.30;99.90
1383;DHT22;685;47.196;11.880;2023-02-01T01:10:57;0.40;99.90
1383;DHT22;685;47.196;11.880;2023-02-01T01:13:24;0.40;99.90
1383;DHT22;685;47.196;11.880;2023-02-01T01:15:51;0.50;99.90
1383;DHT22;685;47.196;11.880;2023-02-01T01:18:18;0.50;99.90
1383;DHT22;685;47.196;11.880;2023-02-01T01:20:45;0.40;99.90
1383;DHT22;685;47.196;11.880;2023-02-01T01:23:12;0.20;99.90
1383;DHT22;685;47.196;11.880;2023-02-01T01:25:39;0.30;99.90
1383;DHT22;685;47.196;11.880;2023-02-01T01:28:07;0.50;99.90
1383;DHT22;685;47.196;11.880;2023-02-01T01:30:35;0.50;99.90
1383;DHT22;685;47.196;11.880;2023-02-01T01:33:02;0.30;99.90
1383;DHT22;685;47.196;11.880;2023-02-01T01:35:29;0.20;99.90
1383;DHT22;685;47.196;11.880;2023-02-01T01:37:57;-0.40;99.90
1383;DHT22;685;47.196;11.880;2023-02-01T01:40:24;0.00;99.90
1383;DHT22;685;47.196;11.880;2023-02-01T01:42:51;0.30;99.90
1383;DHT22;685;47.196;11.880;2023-02-01T01:45:24;0.40;99.90
1383;DHT22;685;47.196;11.880;2023-02-01T01:47:54;0.30;99.90
1383;DHT22;685;47.196;11.880;2023-02-01T01:50:24;-0.10;99.90
1383;DHT22;685;47.196;11.880;2023-02-01T01:52:54;-0.50;99.90
1383;DHT22;685;47.196;11.880;2023-02-01T01:55:24;-0.40;99.90
1383;DHT22;685;47.196;11.880;2023-02-01T01:57:55;-0.30;99.90
1383;DHT22;685;47.196;11.880;2023-02-01T02:00:25;0.00;99.90
1383;DHT22;685;47.196;11.880;2023-02-01T02:02:57;-0.20;99.90
1383;DHT22;685;47.196;11.880;2023-02-01T02:05:25;-0.10;99.90
1383;DHT22;685;47.196;11.880;2023-02-01T02:07:57;-0.50;99.90
1383;DHT22;685;47.196;11.880;2023-02-01T02:10:24;-0.60;99.90
1383;DHT22;685;47.196;11.880;2023-02-01T02:13:12;-0.10;99.90
1383;DHT22;685;47.196;11.880;2023-02-01T02:15:45;0.20;99.90
1383;DHT22;685;47.196;11.880;2023-02-01T02:18:16;0.10;99.90
1383;DHT22;685;47.196;11.880;2023-02-01T02:21:03;0.00;99.90
1383;DHT22;685;47.196;11.880;2023-02-01T02:27:06;-0.30;99.90
1383;DHT22;685;47.196;11.880;2023-02-01T02:30:09;-0.30;99.90
1383;DHT22;685;47.196;11.880;2023-02-01T02:33:13;-0.10;99.90
1383;DHT22;685;47.196;11.880;2023-02-01T02:35:46;0.00;99.90
1383;DHT22;685;47.196;11.880;2023-02-01T02:38:19;-0.10;99.90
1383;DHT22;685;47.196;11.880;2023-02-01T02:40:51;-0.10;99.90
1383;DHT22;685;47.196;11.880;2023-02-01T02:43:26;-0.20;99.90
1383;DHT22;685;47.196;11.880;2023-02-01T02:46:20;-0.10;99.90
1383;DHT22;685;47.196;11.880;2023-02-01T02:49:11;-0.10;99.90
1383;DHT22;685;47.196;11.880;2023-02-01T02:51:43;-0.10;99.90
1383;DHT22;685;47.196;11.880;2023-02-01T02:54:32;-0.10;99.90
1383;DHT22;685;47.196;11.880;2023-02-01T02:57:14;-0.20;99.90
1383;DHT22;685;47.196;11.880;2023-02-01T03:00:01;-0.20;99.90
1383;DHT22;685;47.196;11.880;2023-02-01T03:02:46;-0.10;99.90
1383;DHT22;685;47.196;11.880;2023-02-01T03:05:36;0.00;99.90
1383;DHT22;685;47.196;11.880;2023-02-01T03:08:11;-0.10;99.90
1383;DHT22;685;47.196;11.880;2023-02-01T03:10:49;-0.30;99.90
1383;DHT22;685;47.196;11.880;2023-02-01T03:13:24;-0.20;99.90
1383;DHT22;685;47.196;11.880;2023-02-01T03:15:55;-0.40;99.90
1383;DHT22;685;47.196;11.880;2023-02-01T03:18:28;-0.20;99.90
1383;DHT22;685;47.196;11.880;2023-02-01T03:21:00;-0.40;99.90
1383;DHT22;685;47.196;11.880;2023-02-01T03:23:31;-0.50;99.90
1383;DHT22;685;47.196;11.880;2023-02-01T03:26:02;-0.40;99.90
1383;DHT22;685;47.196;11.880;2023-02-01T03:28:30;-0.30;99.90
1383;DHT22;685;47.196;11.880;2023-02-01T03:31:00;-0.30;99.90
1383;DHT22;685;47.196;11.880;2023-02-01T03:33:28;0.00;99.90
1383;DHT22;685;47.196;11.880;2023-02-01T03:36:05;0.00;99.90
1383;DHT22;685;47.196;11.880;2023-02-01T03:38:40;-0.40;99.90
1383;DHT22;685;47.196;11.880;2023-02-01T03:41:21;-1.10;99.90
1383;DHT22;685;47.196;11.880;2023-02-01T03:43:53;-1.00;99.90
1383;DHT22;685;47.196;11.880;2023-02-01T03:46:27;-0.90;99.90
1383;DHT22;685;47.196;11.880;2023-02-01T03:49:01;-0.70;99.90
1383;DHT22;685;47.196;11.880;2023-02-01T03:51:31;-0.60;99.90
1383;DHT22;685;47.196;11.880;2023-02-01T03:54:01;-0.80;99.90
1383;DHT22;685;47.196;11.880;2023-02-01T03:56:29;-0.70;99.90
1383;DHT22;685;47.196;11.880;2023-02-01T03:58:57;-0.60;99.90
1383;DHT22;685;47.196;11.880;2023-02-01T04:01:26;-0.50;99.90
1383;DHT22;685;47.196;11.880;2023-02-01T04:03:53;-0.60;99.90
1383;DHT22;685;47.196;11.880;2023-02-01T04:06:21;-0.60;99.90
1383;DHT22;685;47.196;11.880;2023-02-01T04:08:49;-0.60;99.90
1383;DHT22;685;47.196;11.880;2023-02-01T04:11:16;-0.60;99.90
1383;DHT22;685;47.196;11.880;2023-02-01T04:13:44;-1.30;99.90
1383;DHT22;685;47.196;11.880;2023-02-01T04:16:11;-1.30;99.90
1383;DHT22;685;47.196;11.880;2023-02-01T04:18:37;-1.00;99.90
1383;DHT22;685;47.196;11.880;2023-02-01T04:21:05;-1.10;99.90
1383;DHT22;685;47.196;11.880;2023-02-01T04:23:32;-1.10;99.90
1383;DHT22;685;47.196;11.880;2023-02-01T04:26:00;-0.90;99.90
1383;DHT22;685;47.196;11.880;2023-02-01T04:28:28;-0.70;99.90
1383;DHT22;685;47.196;11.880;2023-02-01T04:30:55;-1.00;99.90
1383;DHT22;685;47.196;11.880;2023-02-01T04:33:22;-1.00;99.90
1383;DHT22;685;47.196;11.880;2023-02-01T04:35:49;-1.00;99.90
1383;DHT22;685;47.196;11.880;2023-02-01T04:38:16;-1.30;99.90
1383;DHT22;685;47.196;11.880;2023-02-01T04:40:43;-1.30;99.90
1383;DHT22;685;47.196;11.880;2023-02-01T04:43:11;-1.20;99.90
1383;DHT22;685;47.196;11.880;2023-02-01T04:45:38;-1.10;99.90
1383;DHT22;685;47.196;11.880;2023-02-01T04:48:05;-1.40;99.90
1383;DHT22;685;47.196;11.880;2023-02-01T04:50:32;-1.90;99.90
1383;DHT22;685;47.196;11.880;2023-02-01T04:52:59;-1.70;99.90
1383;DHT22;685;47.196;11.880;2023-02-01T04:55:26;-1.30;99.90
1383;DHT22;685;47.196;11.880;2023-02-01T04:57:52;-1.20;99.90
1383;DHT22;685;47.196;11.880;2023-02-01T05:00:21;-1.10;99.90
1383;DHT22;685;47.196;11.880;2023-02-01T05:02:48;-1.00;99.90
1383;DHT22;685;47.196;11.880;2023-02-01T05:05:15;-0.90;99.90
1383;DHT22;685;47.196;11.880;2023-02-01T05:07:42;-1.90;99.90
1383;DHT22;685;47.196;11.880;2023-02-01T05:10:09;-1.60;99.90
1383;DHT22;685;47.196;11.880;2023-02-01T05:12:36;-1.40;99.90
1383;DHT22;685;47.196;11.880;2023-02-01T05:15:22;-1.90;99.90
1383;DHT22;685;47.196;11.880;2023-02-01T05:17:49;-2.20;99.90
1383;DHT22;685;47.196;11.880;2023-02-01T05:20:16;-1.80;99.90
1383;DHT22;685;47.196;11.880;2023-02-01T05:22:43;-1.40;99.90
1383;DHT22;685;47.196;11.880;2023-02-01T05:25:10;-1.20;99.90
1383;DHT22;685;47.196;11.880;2023-02-01T05:27:36;-2.00;99.90
1383;DHT22;685;47.196;11.880;2023-02-01T05:30:04;-1.80;99.90
1383;DHT22;685;47.196;11.880;2023-02-01T05:32:33;-1.50;99.90
1383;DHT22;685;47.196;11.880;2023-02-01T05:35:00;-1.70;99.90
1383;DHT22;685;47.196;11.880;2023-02-01T05:37:27;-1.70;99.90
1383;DHT22;685;47.196;11.880;2023-02-01T05:39:55;-2.60;99.90
1383;DHT22;685;47.196;11.880;2023-02-01T05:42:21;-2.20;99.90
1383;DHT22;685;47.196;11.880;2023-02-01T05:44:48;-2.00;99.90
1383;DHT22;685;47.196;11.880;2023-02-01T05:47:15;-1.80;99.90
1383;DHT22;685;47.196;11.880;2023-02-01T05:49:43;-2.30;99.90
1383;DHT22;685;47.196;11.880;2023-02-01T05:52:10;-2.90;99.90
1383;DHT22;685;47.196;11.880;2023-02-01T05:54:37;-2.50;99.90
1383;DHT22;685;47.196;11.880;2023-02-01T05:57:04;-2.20;99.90
1383;DHT22;685;47.196;11.880;2023-02-01T05:59:31;-2.00;99.90
1383;DHT22;685;47.196;11.880;2023-02-01T06:01:58;-2.00;99.90
1383;DHT22;685;47.196;11.880;2023-02-01T06:04:25;-2.00;99.90
1383;DHT22;685;47.196;11.880;2023-02-01T06:06:54;-1.90;99.90
1383;DHT22;685;47.196;11.880;2023-02-01T06:09:21;-1.80;99.90
1383;DHT22;685;47.196;11.880;2023-02-01T06:11:48;-2.10;99.90
1383;DHT22;685;47.196;11.880;2023-02-01T06:14:14;-1.90;99.90
1383;DHT22;685;47.196;11.880;2023-02-01T06:16:41;-1.80;99.90
1383;DHT22;685;47.196;11.880;2023-02-01T06:19:11;-1.90;99.90
1383;DHT22;685;47.196;11.880;2023-02-01T06:21:38;-2.10;99.90
1383;DHT22;685;47.196;11.880;2023-02-01T06:24:06;-1.90;99.90
1383;DHT22;685;47.196;11.880;2023-02-01T06:26:33;-2.00;99.90
1383;DHT22;685;47.196;11.880;2023-02-01T06:29:01;-2.60;99.90
1383;DHT22;685;47.196;11.880;2023-02-01T06:31:28;-2.40;99.90
1383;DHT22;685;47.196;11.880;2023-02-01T06:33:55;-2.30;99.90
1383;DHT22;685;47.196;11.880;2023-02-01T06:36:22;-1.90;99.90
1383;DHT22;685;47.196;11.880;2023-02-01T06:38:49;-1.60;99.90
1383;DHT22;685;47.196;11.880;2023-02-01T06:41:17;-1.50;99.90
1383;DHT22;685;47.196;11.880;2023-02-01T06:43:46;-1.60;99.90
1383;DHT22;685;47.196;11.880;2023-02-01T06:46:13;-1.60;99.90
1383;DHT22;685;47.196;11.880;2023-02-01T06:48:40;-1.60;99.90
1383;DHT22;685;47.196;11.880;2023-02-01T06:51:18;-1.60;99.90
1383;DHT22;685;47.196;11.880;2023-02-01T06:53:45;-1.70;99.90
1383;DHT22;685;47.196;11.880;2023-02-01T06:56:12;-1.80;99.90
1383;DHT22;685;47.196;11.880;2023-02-01T06:58:40;-1.50;99.90
1383;DHT22;685;47.196;11.880;2023-02-01T07:01:08;-1.30;99.90
1383;DHT22;685;47.196;11.880;2023-02-01T07:03:36;-1.20;99.90
1383;DHT22;685;47.196;11.880;2023-02-01T07:06:04;-1.20;99.90
1383;DHT22;685;47.196;11.880;2023-02-01T07:08:33;-1.50;99.90
1383;DHT22;685;47.196;11.880;2023-02-01T07:11:02;-2.30;99.90
1383;DHT22;685;47.196;11.880;2023-02-01T07:13:29;-2.00;99.90
1383;DHT22;685;47.196;11.880;2023-02-01T07:16:00;-1.40;99.90
1383;DHT22;685;47.196;11.880;2023-02-01T07:18:27;-1.30;99.90
1383;DHT22;685;47.196;11.880;2023-02-01T07:20:55;-1.40;99.90
1383;DHT22;685;47.196;11.880;2023-02-01T07:23:22;-1.60;99.90
1383;DHT22;685;47.196;11.880;2023-02-01T07:25:53;-2.00;99.90
1383;DHT22;685;47.196;11.880;2023-02-01T07:28:20;-1.90;99.90
1383;DHT22;685;47.196;11.880;2023-02-01T07:30:47;-1.70;99.90
1383;DHT22;685;47.196;11.880;2023-02-01T07:33:18;-1.60;99.90
1383;DHT22;685;47.196;11.880;2023-02-01T07:35:47;-1.70;99.90
1383;DHT22;685;47.196;11.880;2023-02-01T07:38:14;-2.10;99.90
1383;DHT22;685;47.196;11.880;2023-02-01T07:40:41;-2.10;99.90
1383;DHT22;685;47.196;11.880;2023-02-01T07:43:08;-1.50;99.90
1383;DHT22;685;47.196;11.880;2023-02-01T07:45:36;-1.50;99.90
1383;DHT22;685;47.196;11.880;2023-02-01T07:48:03;-1.70;99.90
1383;DHT22;685;47.196;11.880;2023-02-01T07:50:32;-2.20;99.90
1383;DHT22;685;47.196;11.880;2023-02-01T07:52:59;-2.10;99.90
1383;DHT22;685;47.196;11.880;2023-02-01T07:55:26;-1.80;99.90
1383;DHT22;685;47.196;11.880;2023-02-01T07:57:57;-1.70;99.90
1383;DHT22;685;47.196;11.880;2023-02-01T08:00:25;-1.50;99.90
1383;DHT22;685;47.196;11.880;2023-02-01T08:03:09;-1.30;99.90
1383;DHT22;685;47.196;11.880;2023-02-01T08:05:37;-1.10;99.90
1383;DHT22;685;47.196;11.880;2023-02-01T08:08:05;-0.80;99.90
1383;DHT22;685;47.196;11.880;2023-02-01T08:10:32;-0.70;99.90
1383;DHT22;685;47.196;11.880;2023-02-01T08:13:00;-0.80;99.90
1383;DHT22;685;47.196;11.880;2023-02-01T08:15:27;-0.90;99.90
1383;DHT22;685;47.196;11.880;2023-02-01T08:17:54;-1.10;99.90
1383;DHT22;685;47.196;11.880;2023-02-01T08:20:23;-1.60;99.90
1383;DHT22;685;47.196;11.880;2023-02-01T08:22:52;-1.50;99.90
1383;DHT22;685;47.196;11.880;2023-02-01T08:25:20;-1.20;99.90
1383;DHT22;685;47.196;11.880;2023-02-01T08:27:47;-1.20;99.90
1383;DHT22;685;47.196;11.880;2023-02-01T08:30:14;-1.20;99.90
1383;DHT22;685;47.196;11.880;2023-02-01T08:32:41;-1.10;99.90
1383;DHT22;685;47.196;11.880;2023-02-01T08:35:08;-0.90;99.90
1383;DHT22;685;47.196;11.880;2023-02-01T08:37:35;-0.60;99.90
1383;DHT22;685;47.196;11.880;2023-02-01T08:40:05;-0.60;99.90
1383;DHT22;685;47.196;11.880;2023-02-01T08:42:32;-0.50;99.90
1383;DHT22;685;47.196;11.880;2023-02-01T08:45:18;-0.50;99.90
1383;DHT22;685;47.196;11.880;2023-02-01T08:47:45;-0.70;99.90
1383;DHT22;685;47.196;11.880;2023-02-01T08:50:16;-0.50;99.90
1383;DHT22;685;47.196;11.880;2023-02-01T08:52:44;-0.40;99.90
1383;DHT22;685;47.196;11.880;2023-02-01T08:55:13;-0.30;99.90
1383;DHT22;685;47.196;11.880;2023-02-01T08:57:41;-0.80;99.90
1383;DHT22;685;47.196;11.880;2023-02-01T09:00:11;-0.90;99.90
1383;DHT22;685;47.196;11.880;2023-02-01T09:02:39;-0.50;99.90
1383;DHT22;685;47.196;11.880;2023-02-01T09:05:06;-0.30;99.90
1383;DHT22;685;47.196;11.880;2023-02-01T09:07:33;0.00;99.90
1383;DHT22;685;47.196;11.880;2023-02-01T09:10:00;0.10;99.90
1383;DHT22;685;47.196;11.880;2023-02-01T09:12:29;0.30;99.90
1383;DHT22;685;47.196;11.880;2023-02-01T09:14:56;0.00;99.90
1383;DHT22;685;47.196;11.880;2023-02-01T09:17:25;-0.40;99.90
1383;DHT22;685;47.196;11.880;2023-02-01T09:19:52;-0.10;99.90
1383;DHT22;685;47.196;11.880;2023-02-01T09:22:19;0.20;99.90
1383;DHT22;685;47.196;11.880;2023-02-01T09:24:46;0.40;99.90
1383;DHT22;685;47.196;11.880;2023-02-01T09:27:13;0.40;99.90
1383;DHT22;685;47.196;11.880;2023-02-01T09:29:41;-0.10;99.90
1383;DHT22;685;47.196;11.880;2023-02-01T09:32:08;-0.70;99.90
1383;DHT22;685;47.196;11.880;2023-02-01T09:34:35;-0.40;99.90
1383;DHT22;685;47.196;11.880;2023-02-01T09:37:02;0.00;99.90
1383;DHT22;685;47.196;11.880;2023-02-01T09:39:29;0.30;99.90
1383;DHT22;685;47.196;11.880;2023-02-01T09:42:04;0.30;99.90
1383;DHT22;685;47.196;11.880;2023-02-01T09:44:46;0.40;99.90
1383;DHT22;685;47.196;11.880;2023-02-01T09:47:18;0.70;99.90
1383;DHT22;685;47.196;11.880;2023-02-01T09:49:51;0.30;99.90
1383;DHT22;685;47.196;11.880;2023-02-01T09:52:25;0.50;99.90
1383;DHT22;685;47.196;11.880;2023-02-01T09:54:55;0.30;99.90
1383;DHT22;685;47.196;11.880;2023-02-01T09:57:39;0.60;99.90
1383;DHT22;685;47.196;11.880;2023-02-01T10:00:15;0.80;99.90
1383;DHT22;685;47.196;11.880;2023-02-01T10:02:43;0.90;99.90
1383;DHT22;685;47.196;11.880;2023-02-01T10:05:14;0.90;99.90
1383;DHT22;685;47.196;11.880;2023-02-01T10:07:48;0.90;99.90
1383;DHT22;685;47.196;11.880;2023-02-01T10:10:23;0.90;99.90
1383;DHT22;685;47.196;11.880;2023-02-01T10:15:55;0.90;99.90
1383;DHT22;685;47.196;11.880;2023-02-01T10:18:35;1.10;99.90
1383;DHT22;685;47.196;11.880;2023-02-01T10:21:10;1.20;99.90
1383;DHT22;685;47.196;11.880;2023-02-01T10:23:58;1.00;99.90
1383;DHT22;685;47.196;11.880;2023-02-01T10:26:30;0.90;99.90
1383;DHT22;685;47.196;11.880;2023-02-01T10:29:01;1.10;99.90
1383;DHT22;685;47.196;11.880;2023-02-01T10:31:34;1.10;99.90
1383;DHT22;685;47.196;11.880;2023-02-01T10:34:07;1.00;99.90
1383;DHT22;685;47.196;11.880;2023-02-01T10:36:49;0.80;99.90
1383;DHT22;685;47.196;11.880;2023-02-01T10:39:17;1.00;99.90
1383;DHT22;685;47.196;11.880;2023-02-01T10:41:44;0.80;99.90
1383;DHT22;685;47.196;11.880;2023-02-01T10:44:13;0.90;99.90
1383;DHT22;685;47.196;11.880;2023-02-01T10:46:42;1.30;99.90
1383;DHT22;685;47.196;11.880;2023-02-01T10:49:15;1.60;99.90
1383;DHT22;685;47.196;11.880;2023-02-01T10:51:47;1.70;99.90
1383;DHT22;685;47.196;11.880;2023-02-01T10:54:17;1.70;99.90
1383;DHT22;685;47.196;11.880;2023-02-01T10:56:46;1.90;99.90
1383;DHT22;685;47.196;11.880;2023-02-01T10:59:16;1.90;99.90
1383;DHT22;685;47.196;11.880;2023-02-01T11:01:47;1.60;99.90
1383;DHT22;685;47.196;11.880;2023-02-01T11:04:16;1.60;99.90
1383;DHT22;685;47.196;11.880;2023-02-01T11:06:44;1.80;99.90
1383;DHT22;685;47.196;11.880;2023-02-01T11:09:18;1.90;99.90
1383;DHT22;685;47.196;11.880;2023-02-01T11:11:57;2.00;99.90
1383;DHT22;685;47.196;11.880;2023-02-01T11:14:35;2.10;99.90
1383;DHT22;685;47.196;11.880;2023-02-01T11:17:21;2.10;99.90
1383;DHT22;685;47.196;11.880;2023-02-01T11:20:02;2.20;99.90
1383;DHT22;685;47.196;11.880;2023-02-01T11:22:29;2.40;99.90
1383;DHT22;685;47.196;11.880;2023-02-01T11:24:57;2.40;99.90
1383;DHT22;685;47.196;11.880;2023-02-01T11:27:25;2.30;99.90
1383;DHT22;685;47.196;11.880;2023-02-01T11:29:56;1.90;99.90
1383;DHT22;685;47.196;11.880;2023-02-01T11:32:27;2.10;99.90
1383;DHT22;685;47.196;11.880;2023-02-01T11:34:59;2.20;99.90
1383;DHT22;685;47.196;11.880;2023-02-01T11:37:30;2.20;99.90
1383;DHT22;685;47.196;11.880;2023-02-01T11:39:59;2.10;99.90
1383;DHT22;685;47.196;11.880;2023-02-01T11:42:27;2.30;99.90
1383;DHT22;685;47.196;11.880;2023-02-01T11:45:16;2.30;99.90
1383;DHT22;685;47.196;11.880;2023-02-01T11:47:45;2.50;99.90
1383;DHT22;685;47.196;11.880;2023-02-01T11:50:15;2.70;99.90
1383;DHT22;685;47.196;11.880;2023-02-01T11:53:00;2.70;99.90
1383;DHT22;685;47.196;11.880;2023-02-01T11:55:38;2.80;99.90
1383;DHT22;685;47.196;11.880;2023-02-01T11:58:17;2.50;99.90
1383;DHT22;685;47.196;11.880;2023-02-01T12:01:01;2.50;99.90
1383;DHT22;685;47.196;11.880;2023-02-01T12:06:31;2.80;99.90
1383;DHT22;685;47.196;11.880;2023-02-01T12:09:17;2.70;99.90
1383;DHT22;685;47.196;11.880;2023-02-01T12:11:55;2.80;99.90
1383;DHT22;685;47.196;11.880;2023-02-01T12:14:40;2.80;99.90
1383;DHT22;685;47.196;11.880;2023-02-01T12:17:27;2.80;99.90
1383;DHT22;685;47.196;11.880;2023-02-01T12:20:10;2.80;99.90
1383;DHT22;685;47.196;11.880;2023-02-01T12:22:48;2.80;99.90
1383;DHT22;685;47.196;11.880;2023-02-01T12:25:24;2.60;99.90
1383;DHT22;685;47.196;11.880;2023-02-01T12:28:12;2.80;99.90
1383;DHT22;685;47.196;11.880;2023-02-01T12:33:48;3.20;99.90
1383;DHT22;685;47.196;11.880;2023-02-01T12:36:25;3.30;99.90
1383;DHT22;685;47.196;11.880;2023-02-01T12:39:00;3.10;99.90
1383;DHT22;685;47.196;11.880;2023-02-01T12:44:27;3.10;99.90
1383;DHT22;685;47.196;11.880;2023-02-01T12:46:58;3.20;99.90
1383;DHT22;685;47.196;11.880;2023-02-01T12:49:34;3.10;99.90
1383;DHT22;685;47.196;11.880;2023-02-01T12:52:09;3.10;99.90
1383;DHT22;685;47.196;11.880;2023-02-01T12:54:44;3.10;99.90
1383;DHT22;685;47.196;11.880;2023-02-01T12:57:15;3.10;99.90
1383;DHT22;685;47.196;11.880;2023-02-01T12:59:48;3.20;99.90
1383;DHT22;685;47.196;11.880;2023-02-01T13:02:23;3.60;99.90
1383;DHT22;685;47.196;11.880;2023-02-01T13:04:58;3.50;99.90
1383;DHT22;685;47.196;11.880;2023-02-01T13:07:34;3.50;99.90
1383;DHT22;685;47.196;11.880;2023-02-01T13:10:11;3.40;99.90
1383;DHT22;685;47.196;11.880;2023-02-01T13:12:44;3.40;99.90
1383;DHT22;685;47.196;11.880;2023-02-01T13:15:17;3.50;99.90
1383;DHT22;685;47.196;11.880;2023-02-01T13:17:47;3.50;99.90
1383;DHT22;685;47.196;11.880;2023-02-01T13:20:19;3.40;99.90
1383;DHT22;685;47.196;11.880;2023-02-01T13:22:51;3.20;99.90
1383;DHT22;685;47.196;11.880;2023-02-01T13:25:28;3.60;99.90
1383;DHT22;685;47.196;11.880;2023-02-01T13:28:00;3.60;99.90
1383;DHT22;685;47.196;11.880;2023-02-01T13:30:48;3.50;99.90
1383;DHT22;685;47.196;11.880;2023-02-01T13:33:31;3.30;99.90
1383;DHT22;685;47.196;11.880;2023-02-01T13:36:14;3.30;99.90
1383;DHT22;685;47.196;11.880;2023-02-01T13:39:28;3.10;99.90
1383;DHT22;685;47.196;11.880;2023-02-01T13:42:01;3.00;99.90
1383;DHT22;685;47.196;11.880;2023-02-01T13:44:32;3.50;99.90
1383;DHT22;685;47.196;11.880;2023-02-01T13:47:02;3.70;99.90
1383;DHT22;685;47.196;11.880;2023-02-01T13:49:36;3.70;99.90
1383;DHT22;685;47.196;11.880;2023-02-01T13:52:04;3.60;99.90
1383;DHT22;685;47.196;11.880;2023-02-01T13:54:34;3.50;99.90
1383;DHT22;685;47.196;11.880;2023-02-01T13:57:05;3.30;99.90
1383;DHT22;685;47.196;11.880;2023-02-01T13:59:48;3.30;99.90
1383;DHT22;685;47.196;11.880;2023-02-01T14:02:48;3.30;99.90
1383;DHT22;685;47.196;11.880;2023-02-01T14:08:22;3.50;99.90
1383;DHT22;685;47.196;11.880;2023-02-01T14:10:54;3.50;99.90
1383;DHT22;685;47.196;11.880;2023-02-01T14:13:27;3.50;99.90
1383;DHT22;685;47.196;11.880;2023-02-01T14:16:11;3.50;99.90
1383;DHT22;685;47.196;11.880;2023-02-01T14:19:07;3.50;99.90
1383;DHT22;685;47.196;11.880;2023-02-01T14:21:47;3.40;99.90
1383;DHT22;685;47.196;11.880;2023-02-01T14:24:20;3.30;99.90
1383;DHT22;685;47.196;11.880;2023-02-01T14:26:53;3.50;99.90
1383;DHT22;685;47.196;11.880;2023-02-01T14:29:26;3.80;99.90
1383;DHT22;685;47.196;11.880;2023-02-01T14:32:01;3.80;99.90
1383;DHT22;685;47.196;11.880;2023-02-01T14:34:37;3.70;99.90
1383;DHT22;685;47.196;11.880;2023-02-01T14:37:10;3.50;99.90
1383;DHT22;685;47.196;11.880;2023-02-01T14:39:56;3.30;99.90
1383;DHT22;685;47.196;11.880;2023-02-01T14:42:29;3.40;99.90
1383;DHT22;685;47.196;11.880;2023-02-01T14:51:08;3.20;99.90
1383;DHT22;685;47.196;11.880;2023-02-01T14:53:36;3.00;99.90
1383;DHT22;685;47.196;11.880;2023-02-01T14:56:07;3.20;99.90
1383;DHT22;685;47.196;11.880;2023-02-01T14:58:41;3.30;99.90
1383;DHT22;685;47.196;11.880;2023-02-01T15:01:21;3.20;99.90
1383;DHT22;685;47.196;11.880;2023-02-01T15:03:54;3.10;99.90
1383;DHT22;685;47.196;11.880;2023-02-01T15:06:32;3.10;99.90
1383;DHT22;685;47.196;11.880;2023-02-01T15:09:02;3.10;99.90
1383;DHT22;685;47.196;11.880;2023-02-01T15:11:30;3.10;99.90
1383;DHT22;685;47.196;11.880;2023-02-01T15:13:58;3.00;99.90
1383;DHT22;685;47.196;11.880;2023-02-01T15:16:26;3.10;99.90
1383;DHT22;685;47.196;11.880;2023-02-01T15:19:08;3.30;99.90
1383;DHT22;685;47.196;11.880;2023-02-01T15:21:46;3.40;99.90
1383;DHT22;685;47.196;11.880;2023-02-01T15:24:14;3.40;99.90
1383;DHT22;685;47.196;11.880;2023-02-01T15:26:45;3.30;99.90
1383;DHT22;685;47.196;11.880;2023-02-01T15:29:14;3.40;99.90
1383;DHT22;685;47.196;11.880;2023-02-01T15:31:42;3.40;99.90
1383;DHT22;685;47.196;11.880;2023-02-01T15:34:10;3.20;99.90
1383;DHT22;685;47.196;11.880;2023-02-01T15:36:38;3.30;99.90
1383;DHT22;685;47.196;11.880;2023-02-01T15:39:20;3.30;99.90
1383;DHT22;685;47.196;11.880;2023-02-01T15:41:54;3.20;99.90
1383;DHT22;685;47.196;11.880;2023-02-01T15:44:32;3.10;99.90
1383;DHT22;685;47.196;11.880;2023-02-01T15:47:05;3.10;99.90
1383;DHT22;685;47.196;11.880;2023-02-01T15:49:37;3.10;99.90
1383;DHT22;685;47.196;11.880;2023-02-01T15:52:21;3.20;99.90
1383;DHT22;685;47.196;11.880;2023-02-01T15:54:50;3.20;99.90
1383;DHT22;685;47.196;11.880;2023-02-01T15:57:20;3.20;99.90
1383;DHT22;685;47.196;11.880;2023-02-01T15:59:57;3.20;99.90
1383;DHT22;685;47.196;11.880;2023-02-01T16:02:27;3.20;99.90
1383;DHT22;685;47.196;11.880;2023-02-01T16:04:54;3.10;99.90
1383;DHT22;685;47.196;11.880;2023-02-01T16:07:26;3.10;99.90
1383;DHT22;685;47.196;11.880;2023-02-01T16:09:56;3.10;99.90
1383;DHT22;685;47.196;11.880;2023-02-01T16:12:28;3.00;99.90
1383;DHT22;685;47.196;11.880;2023-02-01T16:14:57;3.00;99.90
1383;DHT22;685;47.196;11.880;2023-02-01T16:17:24;3.00;99.90
1383;DHT22;685;47.196;11.880;2023-02-01T16:19:51;3.00;99.90
1383;DHT22;685;47.196;11.880;2023-02-01T16:22:18;3.00;99.90
1383;DHT22;685;47.196;11.880;2023-02-01T16:24:45;3.10;99.90
1383;DHT22;685;47.196;11.880;2023-02-01T16:27:11;3.00;99.90
1383;DHT22;685;47.196;11.880;2023-02-01T16:29:38;2.90;99.90
1383;DHT22;685;47.196;11.880;2023-02-01T16:32:14;2.80;99.90
1383;DHT22;685;47.196;11.880;2023-02-01T16:34:42;2.80;99.90
1383;DHT22;685;47.196;11.880;2023-02-01T16:37:12;3.00;99.90
1383;DHT22;685;47.196;11.880;2023-02-01T16:39:39;2.90;99.90
1383;DHT22;685;47.196;11.880;2023-02-01T16:42:10;2.80;99.90
1383;DHT22;685;47.196;11.880;2023-02-01T16:44:37;2.80;99.90
1383;DHT22;685;47.196;11.880;2023-02-01T16:47:14;2.80;99.90
1383;DHT22;685;47.196;11.880;2023-02-01T16:49:43;2.70;99.90
1383;DHT22;685;47.196;11.880;2023-02-01T16:52:13;2.80;99.90
1383;DHT22;685;47.196;11.880;2023-02-01T16:54:41;2.80;99.90
1383;DHT22;685;47.196;11.880;2023-02-01T16:57:11;2.70;99.90
1383;DHT22;685;47.196;11.880;2023-02-01T16:59:38;2.60;99.90
1383;DHT22;685;47.196;11.880;2023-02-01T17:02:05;2.40;99.90